Time;durP1;ratioP1;P1;durP2;ratioP2;P2;SDS_P1;SDS_P2;PMS_P1;PMS_P2;Temp;Humidity;BMP_temperature;BMP_pressure;BME280_temperature;BME280_humidity;BME280_pressure;Samples;Min_cycle;Max_cycle;Signal;HPM_P1;HPM_P2
2022/02/03 00:01:10;;;;;;;;;3.00;3.00;;;;;10.39;63.37;101745.22;5095409;27;45599;-77
2022/02/03 00:03:48;;;;;;;;;5.75;4.50;;;;;10.75;63.47;101796.16;5094918;27;45357;-76
2022/02/03 00:06:16;;;;;;;;;3.00;3.00;;;;;10.58;63.33;101771.59;5097132;27;45646;-76
2022/02/03 00:22:40;;;;;;;;;3.75;3.50;;;;;10.42;63.21;101748.00;5098735;27;45582;-77
2022/02/03 00:25:20;;;;;;;;;3.75;3.00;;;;;10.63;63.21;101796.41;5095172;27;46108;-75
2022/02/03 00:28:23;;;;;;;;;4.00;4.00;;;;;10.61;63.33;101790.19;5090659;27;45286;-76
2022/02/03 00:49:17;;;;;;;;;3.00;3.00;;;;;10.49;62.76;101766.81;5095391;27;45538;-76
2022/02/03 00:51:47;;;;;;;;;3.25;3.00;;;;;10.33;63.07;101735.28;5097243;27;45474;-76
2022/02/03 00:54:15;;;;;;;;;4.25;3.00;;;;;9.88;62.77;101673.38;5098950;27;45455;-76
2022/02/03 00:56:47;;;;;;;;;2.50;2.50;;;;;10.33;62.87;101737.91;5098939;27;45646;-77
2022/02/03 00:59:26;;;;;;;;;3.00;3.00;;;;;10.33;62.89;101730.94;5095456;27;45531;-76
2022/02/03 01:01:58;;;;;;;;;3.75;3.50;;;;;10.32;62.83;101734.38;5099383;27;45471;-76
2022/02/03 01:04:28;;;;;;;;;2.50;2.00;;;;;9.89;62.91;101662.94;5099511;27;45534;-77
2022/02/03 01:07:02;;;;;;;;;3.50;3.50;;;;;10.13;62.83;101705.34;5095538;27;45972;-76
2022/02/03 01:09:30;;;;;;;;;5.25;4.75;;;;;10.49;62.86;101771.13;5094915;27;45488;-76
2022/02/03 01:12:14;;;;;;;;;3.50;3.00;;;;;10.29;62.55;101742.09;5094973;27;45864;-76
2022/02/03 01:17:40;;;;;;;;;3.00;2.25;;;;;9.76;62.57;101652.66;5084758;27;46119;-77
2022/02/03 01:45:18;;;;;;;;;4.00;3.75;;;;;10.27;62.85;101780.53;5100636;27;45442;-77
2022/02/03 01:52:40;;;;;;;;;4.75;3.25;;;;;9.56;63.13;101642.00;5096264;27;45476;-77
2022/02/03 01:55:10;;;;;;;;;2.50;2.50;;;;;9.95;62.83;101718.44;5101660;27;45485;-78
2022/02/03 01:57:52;;;;;;;;;4.00;3.75;;;;;9.64;62.98;101662.47;5095794;27;46697;-78
2022/02/03 02:00:21;;;;;;;;;4.00;3.00;;;;;9.59;62.74;101645.59;5091500;27;46054;-78
2022/02/03 02:02:58;;;;;;;;;4.00;3.00;;;;;10.21;62.66;101753.03;5103981;27;45398;-78
2022/02/03 02:05:36;;;;;;;;;5.00;4.00;;;;;10.13;62.53;101754.34;5108758;27;45556;-78
2022/02/03 02:08:20;;;;;;;;;3.00;3.00;;;;;10.06;62.69;101756.66;5109630;27;45549;-77
2022/02/03 02:11:22;;;;;;;;;4.00;3.75;;;;;9.86;62.56;101728.44;5117475;27;46046;-76
2022/02/03 02:14:05;;;;;;;;;4.50;3.50;;;;;9.75;62.96;101709.50;5102902;27;45460;-77
2022/02/03 02:17:12;;;;;;;;;3.25;3.00;;;;;9.59;62.63;101661.34;5100654;27;45681;-77
2022/02/03 02:40:06;;;;;;;;;3.50;3.00;;;;;10.13;62.87;101696.56;5086261;27;45518;-78
2022/02/03 02:42:46;;;;;;;;;2.50;2.00;;;;;9.61;62.97;101592.38;5098073;27;46533;-78
2022/02/03 02:45:15;;;;;;;;;5.00;4.00;;;;;10.07;62.96;101658.63;5117705;27;45956;-77
2022/02/03 02:48:07;;;;;;;;;4.50;4.25;;;;;10.15;62.91;101658.13;5104732;27;45706;-77
2022/02/03 02:50:50;;;;;;;;;5.25;4.00;;;;;9.94;62.84;101600.16;5117759;27;45640;-77
2022/02/03 03:31:59;;;;;;;;;5.25;5.00;;;;;9.90;63.32;101511.53;5105122;27;45539;-77
2022/02/03 03:37:26;;;;;;;;;6.00;4.25;;;;;9.59;63.67;101461.88;5103088;27;45785;-77
2022/02/03 03:39:57;;;;;;;;;4.75;4.75;;;;;9.82;63.64;101492.81;5097629;27;45480;-78
2022/02/03 03:42:29;;;;;;;;;7.25;5.00;;;;;9.62;63.75;101465.56;5110912;27;45550;-77
2022/02/03 03:44:59;;;;;;;;;5.00;4.00;;;;;9.26;63.70;101402.56;5117628;27;45350;-78
2022/02/03 03:47:28;;;;;;;;;5.00;4.75;;;;;9.77;63.71;101486.44;5102113;27;45645;-77
2022/02/03 03:50:01;;;;;;;;;5.00;5.00;;;;;9.89;63.85;101513.28;5107447;27;45495;-77
2022/02/03 03:52:29;;;;;;;;;5.00;4.00;;;;;9.61;63.82;101455.91;5123538;27;45176;-78
2022/02/03 03:55:33;;;;;;;;;4.50;4.50;;;;;10.05;63.69;101521.09;5123993;27;45137;-78
2022/02/03 04:44:11;;;;;;;;;3.75;3.75;;;;;9.99;64.18;101489.25;5131379;27;45150;-77
2022/02/03 05:08:11;;;;;;;;;4.50;4.50;;;;;9.14;64.11;101301.38;5105589;27;46121;-84
2022/02/03 05:20:24;;;;;;;;;6.00;5.00;;;;;9.96;64.44;101430.47;5093661;27;45839;-78
2022/02/03 05:25:53;;;;;;;;;8.00;6.50;;;;;9.91;63.94;101438.13;5103242;27;45200;-78
2022/02/03 05:43:41;;;;;;;;;8.50;7.00;;;;;9.17;63.72;101348.75;5111632;27;45491;-79
2022/02/03 06:05:50;;;;;;;;;13.50;11.00;;;;;9.32;64.12;101388.84;5109833;27;45707;-84
2022/02/03 06:13:30;;;;;;;;;10.00;10.00;;;;;9.51;64.36;101403.78;5103421;27;45228;-80
2022/02/03 06:21:31;;;;;;;;;10.75;8.75;;;;;9.49;64.51;101366.94;5127254;27;45133;-79
2022/02/03 06:24:09;;;;;;;;;10.00;9.75;;;;;9.56;64.49;101368.19;5119321;27;45050;-78
2022/02/03 06:29:46;;;;;;;;;13.50;12.25;;;;;9.17;63.96;101314.66;5092185;27;45456;-81
2022/02/03 06:32:11;;;;;;;;;10.75;9.75;;;;;9.31;64.10;101334.59;5087645;28;45039;-84
2022/02/03 06:34:36;;;;;;;;;14.00;10.75;;;;;9.04;64.16;101287.81;5092963;27;45181;-82
2022/02/03 06:37:02;;;;;;;;;11.75;11.00;;;;;9.27;64.14;101335.25;5110798;27;46067;-78
2022/02/03 06:39:29;;;;;;;;;13.25;11.00;;;;;9.17;64.19;101298.91;5110221;27;45279;-83
2022/02/03 06:41:58;;;;;;;;;11.25;11.25;;;;;9.43;64.29;101353.53;5103208;27;45231;-79
2022/02/03 06:44:32;;;;;;;;;12.25;11.00;;;;;9.37;64.25;101344.50;5099882;27;45311;-80
2022/02/03 06:47:02;;;;;;;;;15.00;13.75;;;;;9.29;64.33;101315.25;5101173;27;46429;-78
2022/02/03 06:52:09;;;;;;;;;14.50;14.00;;;;;9.40;64.30;101340.25;5099686;27;45190;-79
2022/02/03 06:57:04;;;;;;;;;15.67;14.67;;;;;9.23;64.28;101313.22;5103852;27;45409;-78
2022/02/03 06:59:40;;;;;;;;;18.50;16.25;;;;;9.30;64.43;101322.28;5106335;27;45495;-79
2022/02/03 07:02:07;;;;;;;;;15.75;14.75;;;;;9.32;64.37;101331.16;5098581;27;45100;-81
2022/02/03 07:04:40;;;;;;;;;15.00;12.25;;;;;9.08;64.28;101288.88;5099121;27;45177;-79
2022/02/03 07:07:05;;;;;;;;;12.50;12.25;;;;;9.23;64.44;101307.97;5099594;27;45738;-79
2022/02/03 07:09:31;;;;;;;;;18.00;16.75;;;;;9.32;64.70;101328.53;5107401;27;45115;-82
2022/02/03 07:11:56;;;;;;;;;13.50;12.50;;;;;9.36;64.65;101324.28;5111573;27;45012;-79
2022/02/03 07:14:24;;;;;;;;;13.75;13.75;;;;;9.14;64.57;101294.41;5097385;27;45264;-80
2022/02/03 07:16:51;;;;;;;;;15.00;15.00;;;;;9.21;64.44;101328.00;5113717;27;46146;-80
2022/02/03 07:19:16;;;;;;;;;13.00;10.75;;;;;9.26;64.26;101337.00;5095838;27;45512;-83
2022/02/03 07:21:42;;;;;;;;;14.00;13.75;;;;;9.28;64.78;101337.06;5105650;27;45153;-80
2022/02/03 07:24:08;;;;;;;;;11.00;11.00;;;;;9.23;64.75;101328.06;5095718;27;45248;-83
2022/02/03 07:26:35;;;;;;;;;15.00;14.00;;;;;9.23;64.39;101323.72;5097636;27;45382;-80
2022/02/03 07:29:00;;;;;;;;;12.25;11.00;;;;;9.21;64.73;101343.75;5110203;27;45742;-83
2022/02/03 07:31:27;;;;;;;;;11.75;11.75;;;;;9.14;64.24;101349.47;5110113;27;45185;-79
2022/02/03 07:33:54;;;;;;;;;12.50;11.00;;;;;9.08;64.26;101336.06;5096685;27;44949;-81
2022/02/03 07:36:20;;;;;;;;;11.75;11.75;;;;;9.05;64.67;101333.28;5106180;27;45531;-82
2022/02/03 07:38:45;;;;;;;;;17.25;15.00;;;;;9.25;64.60;101373.63;5120921;27;45335;-80
2022/02/03 07:41:10;;;;;;;;;16.00;14.00;;;;;9.01;64.56;101327.00;5105147;27;45939;-79
2022/02/03 07:43:36;;;;;;;;;15.00;12.25;;;;;9.00;64.27;101313.81;5102432;27;45128;-80
2022/02/03 07:46:01;;;;;;;;;14.00;13.50;;;;;9.03;64.50;101319.22;5103168;27;47394;-79
2022/02/03 07:48:26;;;;;;;;;16.00;12.75;;;;;9.06;64.25;101324.59;5104516;27;45185;-78
2022/02/03 07:50:52;;;;;;;;;11.25;11.00;;;;;9.05;64.38;101325.41;5097216;27;45849;-77
2022/02/03 07:53:17;;;;;;;;;17.00;14.00;;;;;9.05;64.21;101331.56;5096756;27;45459;-78
2022/02/03 07:55:43;;;;;;;;;15.67;15.00;;;;;9.05;64.34;101351.63;5090567;27;47614;-78
2022/02/03 07:58:08;;;;;;;;;14.50;13.25;;;;;8.89;64.66;101317.63;5102852;27;45254;-81
2022/02/03 08:00:34;;;;;;;;;12.50;12.50;;;;;9.17;64.95;101354.88;5106611;27;45473;-85
2022/02/03 08:03:04;;;;;;;;;11.50;10.75;;;;;9.05;64.54;101330.66;5112405;27;45197;-83
2022/02/03 08:05:29;;;;;;;;;12.50;12.50;;;;;8.97;64.89;101314.56;5108596;27;46090;-79
2022/02/03 08:08:05;;;;;;;;;16.00;16.00;;;;;8.90;64.77;101291.47;5102969;27;45319;-82
2022/02/03 08:12:59;;;;;;;;;15.75;15.75;;;;;8.89;64.28;101287.06;5104563;27;45282;-79
2022/02/03 08:15:26;;;;;;;;;16.00;15.75;;;;;9.05;64.48;101320.16;5100963;27;45718;-79
2022/02/03 08:17:58;;;;;;;;;13.00;12.50;;;;;9.02;64.68;101320.94;5101072;27;45882;-78
2022/02/03 08:20:23;;;;;;;;;12.25;11.00;;;;;9.10;64.83;101330.91;5084738;27;46377;-79
2022/02/03 08:22:57;;;;;;;;;16.00;15.00;;;;;9.02;64.73;101313.06;5098120;27;45484;-79
2022/02/03 08:25:27;;;;;;;;;14.25;13.75;;;;;9.26;65.01;101346.56;5103823;27;45916;-77
2022/02/03 08:28:24;;;;;;;;;12.25;11.00;;;;;9.17;64.83;101323.41;5102343;27;45471;-79
2022/02/03 08:30:58;;;;;;;;;16.25;15.00;;;;;9.43;64.84;101357.91;5096712;27;45464;-78
2022/02/03 08:33:23;;;;;;;;;16.00;15.25;;;;;9.34;64.76;101332.09;5092392;27;45562;-78
2022/02/03 08:35:50;;;;;;;;;16.00;16.00;;;;;9.18;64.32;101303.34;5090031;27;46593;-79
2022/02/03 08:38:27;;;;;;;;;15.25;14.25;;;;;9.15;64.49;101301.44;5086669;27;45862;-78
2022/02/03 08:43:20;;;;;;;;;14.50;14.25;;;;;9.42;64.31;101329.88;5088905;27;45504;-78
2022/02/03 08:45:46;;;;;;;;;18.00;15.50;;;;;9.06;64.06;101269.53;5129337;27;46395;-79
2022/02/03 08:48:13;;;;;;;;;17.25;16.50;;;;;9.39;64.10;101337.56;5094714;27;46047;-79
2022/02/03 08:50:39;;;;;;;;;19.00;16.25;;;;;9.11;64.39;101296.88;5090381;27;45481;-79
2022/02/03 09:28:24;;;;;;;;;16.50;15.00;;;;;9.49;64.46;101342.44;5091281;27;45766;-78
2022/02/03 09:59:11;;;;;;;;;15.75;14.50;;;;;9.47;63.15;101258.41;5088262;27;46094;-78
2022/02/03 10:01:46;;;;;;;;;14.00;13.00;;;;;9.52;63.36;101254.28;5084935;27;45928;-78
2022/02/03 10:04:17;;;;;;;;;14.75;12.50;;;;;9.51;63.16;101252.50;5081438;27;45950;-78
2022/02/03 10:06:53;;;;;;;;;14.00;13.75;;;;;9.70;63.29;101269.06;5092056;27;45463;-78
2022/02/03 10:09:38;;;;;;;;;16.25;13.50;;;;;9.64;63.15;101247.81;5092233;27;46129;-80
2022/02/03 10:12:04;;;;;;;;;18.50;15.50;;;;;9.75;63.20;101250.13;5090030;27;45853;-79
2022/02/03 10:14:48;;;;;;;;;14.25;13.75;;;;;9.87;63.29;101251.50;5093193;27;45935;-79
2022/02/03 10:17:17;;;;;;;;;13.00;12.00;;;;;9.89;63.15;101229.72;5096338;27;45690;-79
2022/02/03 10:19:48;;;;;;;;;15.25;12.25;;;;;10.08;62.81;101265.56;5101612;27;46439;-77
2022/02/03 10:22:24;;;;;;;;;15.75;15.00;;;;;9.97;62.44;101240.56;5096502;27;45574;-79
2022/02/03 10:24:51;;;;;;;;;16.00;15.00;;;;;9.95;62.44;101239.59;5094555;27;45554;-81
2022/02/03 10:27:28;;;;;;;;;14.00;13.50;;;;;10.01;62.10;101253.91;5094668;27;45525;-78
2022/02/03 10:30:22;;;;;;;;;16.00;14.25;;;;;9.95;62.15;101239.59;5098066;27;46379;-79
2022/02/03 10:32:48;;;;;;;;;15.75;15.75;;;;;10.22;62.12;101276.72;5089465;27;45716;-78
2022/02/03 10:36:13;;;;;;;;;13.00;12.50;;;;;10.48;62.36;101284.03;5094959;27;45592;-78
2022/02/03 10:54:46;;;;;;;;;20.00;18.00;;;;;10.43;61.80;101298.69;5092989;27;45274;-78
2022/02/03 11:07:36;;;;;;;;;22.00;21.00;;;;;10.04;62.07;101237.38;5085082;27;45466;-78
2022/02/03 11:12:30;;;;;;;;;20.50;18.00;;;;;10.09;62.44;101264.75;5100116;27;45163;-78
2022/02/03 11:14:57;;;;;;;;;21.25;19.75;;;;;10.04;63.24;101242.63;5095377;27;45910;-78
2022/02/03 11:17:25;;;;;;;;;22.75;18.00;;;;;10.04;62.88;101232.13;5103380;27;45151;-78
2022/02/03 11:19:56;;;;;;;;;20.25;17.75;;;;;10.11;62.39;101247.34;5101256;27;45264;-79
2022/02/03 11:22:29;;;;;;;;;19.25;16.00;;;;;10.09;62.84;101230.59;5097571;27;46054;-79
2022/02/03 11:25:14;;;;;;;;;27.50;23.50;;;;;10.08;62.27;101228.81;5101855;27;45538;-78
2022/02/03 11:31:17;;;;;;;;;20.75;19.00;;;;;10.24;62.43;101214.66;5101807;27;45269;-79
2022/02/03 12:03:30;;;;;;;;;24.00;22.00;;;;;10.28;62.92;101180.69;5089508;27;45350;-79
2022/02/03 12:06:42;;;;;;;;;21.50;20.50;;;;;10.32;62.66;101182.63;5100072;27;46610;-83
2022/02/03 12:10:33;;;;;;;;;25.00;20.25;;;;;10.39;62.44;101193.38;5101337;27;45680;-81
2022/02/03 12:17:55;;;;;;;;;29.00;24.25;;;;;10.27;62.96;101173.66;5098469;27;45502;-82
2022/02/03 12:21:05;;;;;;;;;24.50;21.75;;;;;10.41;62.66;101178.59;5092121;27;45961;-82
2022/02/03 12:26:18;;;;;;;;;25.75;24.75;;;;;10.30;62.87;101139.63;5094706;27;45689;-81
2022/02/03 12:28:54;;;;;;;;;32.50;27.75;;;;;10.35;62.68;101146.81;5095527;27;45537;-82
2022/02/03 12:31:52;;;;;;;;;27.50;25.00;;;;;10.43;62.55;101161.16;5095572;27;45860;-81
2022/02/03 12:39:33;;;;;;;;;27.75;25.25;;;;;10.50;62.67;101153.59;5075174;27;45758;-79
2022/02/03 12:42:20;;;;;;;;;25.25;25.00;;;;;10.41;62.79;101137.47;5076656;27;45935;-86
2022/02/03 12:44:47;;;;;;;;;30.50;29.50;;;;;10.53;62.44;101160.69;5076663;27;45626;-82
2022/02/03 12:47:13;;;;;;;;;30.25;28.25;;;;;10.37;62.30;101139.88;5077880;27;45513;-81
2022/02/03 12:49:39;;;;;;;;;31.00;28.00;;;;;10.50;62.74;101164.13;5095795;27;46328;-86
2022/02/03 12:52:31;;;;;;;;;28.00;25.50;;;;;10.33;62.68;101112.59;5096065;27;45807;-84
2022/02/03 12:54:57;;;;;;;;;24.25;24.00;;;;;10.53;62.71;101132.69;5095366;27;45677;-81
2022/02/03 12:57:34;;;;;;;;;23.75;23.25;;;;;10.69;62.34;101154.34;5096144;27;45574;-79
2022/02/03 13:00:24;;;;;;;;;27.75;26.25;;;;;10.73;62.92;101151.00;5095091;27;46708;-78
2022/02/03 13:02:54;;;;;;;;;25.75;24.50;;;;;10.48;62.88;101091.28;5094149;27;45650;-83
2022/02/03 13:05:25;;;;;;;;;23.00;20.25;;;;;10.73;62.96;101115.09;5082275;27;45652;-80
2022/02/03 13:07:52;;;;;;;;;24.50;22.50;;;;;10.79;62.49;101118.00;5092125;27;45470;-81
2022/02/03 13:10:21;;;;;;;;;25.00;22.00;;;;;10.85;62.29;101131.38;5094806;27;46361;-81
2022/02/03 13:12:55;;;;;;;;;25.50;23.25;;;;;10.73;62.28;101122.97;5098642;27;45895;-80
2022/02/03 13:15:33;;;;;;;;;24.00;23.25;;;;;10.71;62.45;101137.81;5094056;27;45527;-81
2022/02/03 13:18:01;;;;;;;;;29.50;26.75;;;;;10.52;62.23;101122.13;5088044;27;45380;-81
2022/02/03 13:20:37;;;;;;;;;24.25;22.00;;;;;10.44;62.60;101113.94;5081165;27;45619;-80
2022/02/03 13:23:07;;;;;;;;;24.25;23.50;;;;;10.53;62.87;101127.44;5094826;27;45417;-81
2022/02/03 13:25:51;;;;;;;;;27.25;25.75;;;;;10.52;63.10;101119.50;5092597;27;45274;-81
2022/02/03 13:28:51;;;;;;;;;26.25;23.75;;;;;10.51;62.93;101130.84;5096371;27;45165;-79
2022/02/03 13:31:23;;;;;;;;;27.50;27.00;;;;;10.51;63.10;101128.22;5099196;27;45820;-83
2022/02/03 13:34:02;;;;;;;;;27.25;24.75;;;;;10.52;63.22;101112.50;5100807;27;45543;-80
2022/02/03 13:36:33;;;;;;;;;19.00;18.00;;;;;10.48;63.33;101107.94;5095636;27;45998;-81
2022/02/03 13:39:14;;;;;;;;;20.75;19.50;;;;;10.56;63.26;101126.69;5077909;27;45635;-80
2022/02/03 13:41:43;;;;;;;;;23.00;21.00;;;;;10.53;63.21;101130.06;5080190;27;46237;-80
2022/02/03 13:44:13;;;;;;;;;27.50;24.00;;;;;10.20;63.52;101063.88;5088277;27;45651;-82
2022/02/03 13:46:43;;;;;;;;;24.00;22.75;;;;;10.43;63.36;101111.22;5095063;27;45567;-80
2022/02/03 13:49:13;;;;;;;;;20.50;17.50;;;;;10.26;63.52;101095.69;5084588;27;46527;-83
2022/02/03 13:51:40;;;;;;;;;19.75;19.25;;;;;10.32;63.51;101106.44;5094511;27;45958;-81
2022/02/03 13:54:49;;;;;;;;;24.50;22.00;;;;;10.29;63.69;101100.16;5094071;27;45747;-80
2022/02/03 14:12:38;;;;;;;;;21.50;20.00;;;;;9.89;64.03;101050.28;5100296;27;45313;-83
2022/02/03 14:22:13;;;;;;;;;23.25;21.75;;;;;10.22;64.92;101103.34;5098823;27;45353;-82
2022/02/03 14:27:28;;;;;;;;;22.00;21.00;;;;;10.16;64.51;101061.06;5103109;27;45101;-80
2022/02/03 14:30:01;;;;;;;;;26.75;23.25;;;;;10.33;64.56;101095.09;5101674;27;45042;-81
2022/02/03 14:32:38;;;;;;;;;23.50;22.00;;;;;10.47;64.30;101094.75;5108851;27;45248;-80
2022/02/03 14:35:06;;;;;;;;;23.75;21.75;;;;;10.32;64.16;101059.16;5086384;27;46420;-80
2022/02/03 14:37:45;;;;;;;;;23.00;20.25;;;;;10.57;64.04;101082.03;5094606;27;45984;-80
2022/02/03 14:42:41;;;;;;;;;20.50;19.00;;;;;10.60;63.88;101044.50;5086971;27;45564;-79
2022/02/03 14:45:08;;;;;;;;;27.75;25.25;;;;;10.60;63.82;101033.97;5083815;27;46473;-80
2022/02/03 14:47:34;;;;;;;;;19.50;19.00;;;;;10.82;63.64;101070.75;5104639;27;45538;-80
2022/02/03 14:50:02;;;;;;;;;21.00;20.00;;;;;10.94;63.48;101066.84;5106370;27;45252;-80
2022/02/03 14:52:34;;;;;;;;;24.50;20.25;;;;;10.95;63.19;101058.09;5107491;27;45832;-81
2022/02/03 14:58:04;;;;;;;;;22.00;21.25;;;;;10.88;63.17;101054.31;5105203;27;46100;-80
2022/02/03 15:00:31;;;;;;;;;21.75;19.25;;;;;10.80;62.98;101047.88;5105760;27;45519;-81
2022/02/03 15:02:58;;;;;;;;;24.00;20.75;;;;;10.81;63.39;101053.19;5104211;27;46159;-79
2022/02/03 15:05:27;;;;;;;;;22.00;19.75;;;;;10.94;63.50;101064.19;5103788;27;45946;-81
2022/02/03 15:08:13;;;;;;;;;20.75;19.00;;;;;10.78;63.14;101005.75;5106482;27;46009;-80
2022/02/03 15:10:50;;;;;;;;;21.25;19.00;;;;;11.23;62.60;101033.69;5105557;27;45216;-79
2022/02/03 15:15:50;;;;;;;;;20.25;19.00;;;;;11.43;62.05;101042.31;5084203;27;45662;-83
2022/02/03 15:18:17;;;;;;;;;18.67;18.00;;;;;11.21;62.02;101015.22;5087850;27;45605;-80
2022/02/03 15:20:43;;;;;;;;;19.50;18.00;;;;;11.45;62.17;101064.31;5099049;27;45670;-80
2022/02/03 15:23:08;;;;;;;;;24.75;24.75;;;;;11.27;61.86;101049.66;5097520;27;45210;-80
2022/02/03 15:25:34;;;;;;;;;19.75;18.25;;;;;11.22;62.39;101053.84;5092234;27;45481;-80
2022/02/03 15:28:00;;;;;;;;;20.50;19.00;;;;;10.95;62.04;101026.53;5100769;27;45447;-83
2022/02/03 15:30:25;;;;;;;;;25.75;23.50;;;;;11.08;62.61;101066.50;5093058;27;45701;-80
2022/02/03 15:32:51;;;;;;;;;19.75;19.00;;;;;10.93;62.60;101041.34;5096513;27;46091;-79
2022/02/03 15:37:47;;;;;;;;;21.50;20.00;;;;;10.92;62.39;101052.72;5098531;27;45578;-80
2022/02/03 15:40:18;;;;;;;;;16.25;15.00;;;;;10.93;62.87;101058.00;5098779;27;45461;-80
2022/02/03 15:42:53;;;;;;;;;19.75;18.00;;;;;10.73;63.12;101035.31;5101991;27;45722;-80
2022/02/03 15:45:19;;;;;;;;;19.25;17.50;;;;;10.39;62.88;100975.31;5099181;27;46023;-84
2022/02/03 15:47:50;;;;;;;;;16.25;15.00;;;;;10.16;63.05;100956.00;5102466;27;45124;-79
2022/02/03 16:17:08;;;;;;;;;19.00;18.00;;;;;10.45;65.07;101075.41;5100613;27;45661;-81
2022/02/03 16:19:45;;;;;;;;;25.25;23.75;;;;;10.28;64.67;101036.22;5085917;27;47066;-80
2022/02/03 16:24:53;;;;;;;;;21.25;18.50;;;;;10.40;64.62;101030.56;5089425;27;45479;-81
2022/02/03 16:40:46;;;;;;;;;18.75;18.00;;;;;10.31;64.43;101009.19;5102892;27;45275;-80
2022/02/03 16:52:45;;;;;;;;;20.75;19.50;;;;;10.38;64.96;101054.97;5098594;27;45251;-80
2022/02/03 16:55:17;;;;;;;;;18.75;17.75;;;;;10.46;65.21;101077.22;5095142;27;45215;-79
2022/02/03 16:57:42;;;;;;;;;15.50;15.00;;;;;10.46;65.19;101072.84;5100083;27;45087;-80
2022/02/03 17:00:13;;;;;;;;;21.00;18.25;;;;;10.36;65.13;101049.66;5100980;27;46094;-80
2022/02/03 17:02:38;;;;;;;;;13.25;13.00;;;;;10.38;64.86;101055.88;5102317;27;45177;-80
2022/02/03 17:05:04;;;;;;;;;16.00;14.00;;;;;10.44;65.39;101070.97;5097876;27;45329;-80
2022/02/03 17:07:30;;;;;;;;;17.75;16.00;;;;;10.43;65.16;101067.44;5102050;27;45346;-79
2022/02/03 17:09:56;;;;;;;;;19.25;18.25;;;;;10.51;65.40;101087.06;5099279;27;47360;-81
2022/02/03 17:12:22;;;;;;;;;17.75;14.25;;;;;10.51;65.61;101078.28;5101580;27;45295;-80
2022/02/03 17:14:48;;;;;;;;;18.50;17.00;;;;;10.36;65.52;101054.03;5095909;27;45496;-80
2022/02/03 17:17:15;;;;;;;;;19.50;18.00;;;;;10.52;65.54;101082.69;5099274;27;45163;-80
2022/02/03 17:19:41;;;;;;;;;19.00;18.00;;;;;10.32;65.40;101053.88;5095398;27;47022;-80
2022/02/03 17:22:09;;;;;;;;;22.50;19.75;;;;;10.37;65.41;101061.97;5101780;27;45531;-80
2022/02/03 17:24:36;;;;;;;;;21.25;18.75;;;;;10.29;65.64;101039.72;5092234;27;45500;-84
2022/02/03 17:27:10;;;;;;;;;22.50;21.50;;;;;10.46;65.51;101083.34;5096233;27;45426;-80
2022/02/03 17:32:18;;;;;;;;;16.25;15.00;;;;;10.18;65.46;101059.38;5089731;27;46051;-82
2022/02/03 17:54:46;;;;;;;;;18.25;16.75;;;;;9.93;66.55;101067.97;5094832;27;45322;-82
2022/02/03 18:54:30;;;;;;;;;37.50;35.25;;;;;9.53;68.96;101076.75;5097803;27;45477;-81
2022/02/03 18:57:15;;;;;;;;;36.25;32.00;;;;;9.69;68.81;101105.44;5096718;27;45460;-81
2022/02/03 19:29:08;;;;;;;;;29.00;27.50;;;;;9.48;70.50;101125.50;5076431;27;45872;-81
2022/02/03 20:04:38;;;;;;;;;30.50;28.50;;;;;8.76;71.00;101014.72;5085805;27;45475;-93
2022/02/03 20:07:16;;;;;;;;;28.00;26.25;;;;;9.02;71.34;101063.13;5073835;27;45461;-87
2022/02/03 20:12:25;;;;;;;;;30.25;26.50;;;;;9.47;71.22;101147.31;5071977;27;45861;-86
2022/02/03 20:14:51;;;;;;;;;25.75;23.75;;;;;9.20;71.00;101098.00;5071061;28;45375;-92
2022/02/03 20:17:19;;;;;;;;;27.00;23.75;;;;;9.38;71.25;101124.19;5093191;27;45527;-87
2022/02/03 20:19:47;;;;;;;;;23.25;21.00;;;;;9.02;71.34;101063.13;5084895;27;46221;-80
2022/02/03 20:22:13;;;;;;;;;25.75;23.75;;;;;9.31;71.35;101111.66;5092748;27;46235;-80
2022/02/03 20:24:38;;;;;;;;;30.75;29.75;;;;;9.28;71.13;101109.75;5092155;27;45505;-79
2022/02/03 20:27:04;;;;;;;;;28.50;27.00;;;;;9.31;71.29;101122.13;5095326;27;45549;-79
2022/02/03 20:29:29;;;;;;;;;25.25;24.50;;;;;9.25;71.45;101109.59;5085586;27;45600;-79
2022/02/03 20:31:54;;;;;;;;;26.33;25.33;;;;;9.29;71.56;101124.66;5091538;27;45453;-79
2022/02/03 20:34:21;;;;;;;;;31.25;29.75;;;;;9.28;71.63;101116.72;5090524;27;45412;-79
2022/02/03 20:36:47;;;;;;;;;30.50;30.50;;;;;9.25;71.77;101111.34;5091715;27;45447;-79
2022/02/03 20:39:12;;;;;;;;;28.75;27.00;;;;;9.35;71.71;101131.00;5092099;27;45494;-79
2022/02/03 20:41:37;;;;;;;;;28.00;24.25;;;;;9.32;71.55;101116.06;5089194;27;45650;-79
2022/02/03 20:44:03;;;;;;;;;24.00;22.33;;;;;9.44;71.66;101150.69;5092446;27;45345;-79
2022/02/03 20:46:30;;;;;;;;;22.75;20.75;;;;;9.33;71.30;101130.06;5090422;27;45442;-79
2022/02/03 20:48:55;;;;;;;;;22.75;22.50;;;;;9.39;71.84;101141.72;5089586;27;47221;-79
2022/02/03 20:51:22;;;;;;;;;22.50;20.75;;;;;9.40;71.74;101148.75;5091365;27;45404;-80
2022/02/03 20:53:48;;;;;;;;;18.75;16.75;;;;;9.19;71.54;101109.34;5083037;27;45467;-80
2022/02/03 20:56:18;;;;;;;;;24.25;22.00;;;;;9.29;71.76;101132.53;5084139;27;45484;-79
2022/02/03 20:58:46;;;;;;;;;22.25;19.75;;;;;9.29;71.77;101129.91;5091288;27;46220;-80
2022/02/03 21:01:18;;;;;;;;;20.75;19.00;;;;;9.27;71.66;101136.81;5088882;27;45523;-79
2022/02/03 21:03:46;;;;;;;;;26.00;25.00;;;;;9.05;71.95;101089.44;5094901;27;45859;-79
2022/02/03 21:06:14;;;;;;;;;23.75;23.50;;;;;9.41;72.27;101160.13;5091944;27;45463;-79
2022/02/03 21:08:42;;;;;;;;;31.50;29.00;;;;;9.39;71.83;101146.06;5091222;27;45369;-80
2022/02/03 21:11:07;;;;;;;;;28.50;24.00;;;;;9.10;71.77;101095.81;5091410;27;45493;-79
2022/02/03 21:13:33;;;;;;;;;25.75;24.00;;;;;9.17;72.20;101116.25;5091332;27;45769;-79
2022/02/03 21:16:01;;;;;;;;;23.25;21.75;;;;;9.41;71.95;101147.03;5091720;27;45473;-79
2022/02/03 21:18:29;;;;;;;;;26.00;24.00;;;;;9.41;72.05;101147.03;5091359;27;46323;-80
2022/02/03 21:20:55;;;;;;;;;22.50;22.00;;;;;9.28;71.72;101130.75;5090385;27;45479;-81
2022/02/03 21:23:21;;;;;;;;;24.75;22.25;;;;;9.33;71.96;101138.81;5095568;27;45484;-79
2022/02/03 21:25:51;;;;;;;;;21.25;20.75;;;;;9.22;71.90;101125.22;5071006;27;45630;-79
2022/02/03 21:28:23;;;;;;;;;22.25;21.75;;;;;9.32;71.85;101136.13;5086184;27;46471;-79
2022/02/03 21:30:50;;;;;;;;;23.25;22.00;;;;;9.38;71.88;101146.91;5073469;27;45851;-79
2022/02/03 21:33:22;;;;;;;;;24.00;19.00;;;;;9.29;72.20;101139.50;5088750;27;46147;-79
2022/02/03 21:35:48;;;;;;;;;21.50;21.25;;;;;9.18;72.04;101123.28;5088792;27;45811;-79
2022/02/03 21:38:15;;;;;;;;;21.00;20.00;;;;;9.23;72.10;101129.63;5088887;27;46727;-79
2022/02/03 21:40:41;;;;;;;;;21.75;18.75;;;;;9.20;72.25;101132.09;5079518;27;45829;-79
2022/02/03 21:43:06;;;;;;;;;25.75;22.75;;;;;9.22;71.92;101130.47;5081329;27;45555;-79
2022/02/03 21:45:32;;;;;;;;;31.25;26.75;;;;;9.37;72.21;101163.47;5082822;27;45490;-79
2022/02/03 21:47:58;;;;;;;;;20.75;18.00;;;;;9.22;72.18;101133.09;5070657;27;46724;-79
2022/02/03 21:50:29;;;;;;;;;24.25;21.25;;;;;9.13;71.99;101119.56;5085997;27;45777;-79
2022/02/03 21:52:55;;;;;;;;;23.75;22.25;;;;;9.04;72.11;101108.63;5097520;27;45604;-80
2022/02/03 21:55:21;;;;;;;;;22.00;18.75;;;;;9.25;72.35;101148.06;5097403;27;45661;-79
2022/02/03 21:57:50;;;;;;;;;23.75;20.25;;;;;9.10;72.68;101136.84;5082168;27;45412;-80
2022/02/03 22:00:18;;;;;;;;;23.25;23.25;;;;;9.20;72.67;101149.56;5110303;27;45387;-79
2022/02/03 22:02:44;;;;;;;;;21.00;19.00;;;;;9.25;72.65;101161.16;5090577;27;45777;-79
2022/02/03 22:05:12;;;;;;;;;10.75;9.25;;;;;9.29;72.32;101161.38;5075350;27;45529;-79
2022/02/03 22:07:42;;;;;;;;;20.00;17.50;;;;;9.06;72.41;101127.94;5091190;27;47204;-79
2022/02/03 22:10:09;;;;;;;;;21.50;21.25;;;;;9.13;72.36;101135.28;5088550;27;45479;-79
2022/02/03 22:12:35;;;;;;;;;19.50;17.25;;;;;9.14;72.53;101137.06;5076241;27;45702;-79
2022/02/03 22:15:00;;;;;;;;;21.00;19.25;;;;;9.12;72.25;101143.97;5086834;27;45461;-79